Data for 08/15/2014

Time Sea-Level Adjusted Pressure Absolute Pressure Temperature Relative Humidity Dew Point Precipitation   
(mb) (inHg) (mb) (inHg) (C) (F) (%) (C) (F) (mm) (in)
00:05 1021 30.15 851 25.13 12.8 55.1 84 10.2 50.4 0 0
00:10 1022 30.18 851 25.13 13 55.4 84 10.5 50.8 0 0
00:15 1022 30.18 851 25.13 13 55.3 84 10.4 50.7 0 0
00:20 1021 30.15 851 25.13 13.1 55.5 84 10.4 50.8 0 0
00:25 1021 30.15 851 25.13 12.9 55.1 86 10.5 50.9 0 0
00:30 1021 30.15 851 25.13 12.6 54.7 86 10.3 50.5 0 0
00:35 1021 30.15 851 25.13 12.7 54.8 85 10.2 50.4 0 0
00:40 1021 30.15 851 25.13 12.6 54.7 85 10.2 50.4 0 0
00:45 1021 30.15 851 25.13 12.5 54.5 86 10.3 50.5 0 0
00:50 1021 30.15 850 25.1 12.5 54.5 86 10.2 50.4 0 0
00:55 1021 30.15 850 25.1 12.7 54.8 85 10.2 50.4 0 0
01:00 1021 30.15 850 25.1 13 55.4 84 10.3 50.5 0 0
01:05 1021 30.15 850 25.1 13 55.3 84 10.3 50.5 0 0
01:10 1021 30.15 850 25.1 12.8 55.1 83 10.1 50.2 0 0
01:15 1021 30.15 850 25.1 12.9 55.2 83 10.1 50.2 0 0
01:20 1021 30.15 850 25.1 12.7 54.8 84 10.1 50.2 0 0
01:25 1021 30.15 850 25.1 12.6 54.6 84 10 50 0 0
01:30 1021 30.15 851 25.13 12.5 54.5 85 10 50 0 0
01:35 1021 30.15 850 25.1 12.5 54.4 84 9.9 49.8 0 0
01:40 1021 30.15 850 25.1 12.3 54.2 85 9.9 49.9 0 0
01:45 1021 30.15 850 25.1 12.3 54.1 85 9.9 49.8 0 0
01:50 1021 30.15 850 25.1 12.4 54.3 85 9.9 49.8 0 0
01:55 1021 30.15 850 25.1 12.3 54.2 83 9.5 49.1 0 0
02:00 1021 30.15 850 25.1 12.9 55.3 81 9.7 49.5 0 0
02:05 1021 30.15 850 25.1 12.8 55.1 82 9.9 49.8 0 0
02:10 1021 30.15 850 25.1 12.3 54.1 84 9.7 49.5 0 0
02:15 1021 30.15 850 25.1 12.4 54.2 85 9.8 49.7 0 0
02:20 1021 30.15 851 25.13 12.3 54.2 85 9.9 49.8 0 0
02:25 1021 30.15 851 25.13 12.1 53.7 86 9.8 49.6 0 0
02:30 1021 30.15 851 25.13 12 53.6 85 9.6 49.3 0 0
02:35 1021 30.15 851 25.13 11.7 53.1 88 9.7 49.5 0 0
02:40 1021 30.15 851 25.13 11.7 53 87 9.5 49.2 0 0
02:45 1021 30.15 851 25.13 12 53.6 86 9.8 49.6 0 0
02:50 1021 30.15 851 25.13 11.9 53.5 85 9.5 49 0 0
02:55 1021 30.15 851 25.13 12.3 54.1 84 9.7 49.4 0 0
03:00 1022 30.18 851 25.13 12.4 54.3 84 9.8 49.6 0 0
03:05 1021 30.15 851 25.13 12.7 54.9 82 9.7 49.4 0 0
03:10 1021 30.15 851 25.13 12.9 55.1 81 9.7 49.5 0 0
03:15 1022 30.18 851 25.13 12.7 54.8 83 9.8 49.7 0 0
03:20 1022 30.18 851 25.13 12.8 55 81 9.6 49.2 0 0
03:25 1022 30.18 851 25.13 12.8 55 82 9.7 49.5 0 0
03:30 1022 30.18 851 25.13 12.6 54.6 82 9.6 49.3 0 0
03:35 1022 30.18 851 25.13 12.7 54.8 81 9.5 49 0 0
03:40 1022 30.18 851 25.13 12.8 55 79 9.2 48.6 0 0
03:45 1022 30.18 851 25.13 13.1 55.5 79 9.5 49 0 0
03:50 1022 30.18 851 25.13 12.8 55.1 80 9.5 49.1 0 0
03:55 1022 30.18 851 25.13 12.6 54.6 82 9.5 49.1 0 0
04:00 1022 30.18 851 25.13 12.4 54.4 81 9.3 48.8 0 0
04:05 1022 30.18 851 25.13 12.4 54.3 82 9.5 49 0 0
04:10 1022 30.18 851 25.13 12.3 54.1 82 9.4 48.9 0 0
04:15 1022 30.18 851 25.13 12.4 54.3 81 9.2 48.6 0 0
04:20 1022 30.18 851 25.13 11.9 53.4 85 9.4 48.9 0 0
04:25 1022 30.18 851 25.13 11.1 51.9 89 9.3 48.7 0 0
04:30 1022 30.18 851 25.13 10.9 51.5 90 9.2 48.6 0 0
04:35 1022 30.18 851 25.13 11 51.7 88 9 48.3 0 0
04:40 1022 30.18 851 25.13 10.6 51.1 89 8.9 48.1 0 0
04:45 1022 30.18 851 25.13 10 50.1 90 8.5 47.3 0 0
04:50 1022 30.18 851 25.13 9.9 49.8 91 8.6 47.4 0 0
04:55 1022 30.18 851 25.13 10.3 50.5 89 8.6 47.4 0 0
05:00 1022 30.18 851 25.13 10.2 50.4 89 8.4 47.2 0 0
05:05 1022 30.18 851 25.13 9.5 49.1 92 8.2 46.8 0 0
05:10 1022 30.18 851 25.13 9.3 48.8 92 8.2 46.7 0 0
05:15 1022 30.18 851 25.13 9.6 49.2 92 8.3 47 0 0
05:20 1022 30.18 851 25.13 9.9 49.9 93 8.9 48.1 0 0
05:25 1022 30.18 851 25.13 10.8 51.4 88 8.8 47.9 0 0
05:30 1022 30.18 851 25.13 10.7 51.3 88 8.8 47.9 0 0
05:35 1022 30.18 851 25.13 10.4 50.7 89 8.7 47.6 0 0
05:40 1022 30.18 851 25.13 10 50 91 8.6 47.4 0 0
05:45 1022 30.18 851 25.13 10.1 50.1 91 8.6 47.5 0 0
05:50 1022 30.18 852 25.16 10 50 91 8.6 47.5 0 0
05:55 1022 30.18 852 25.16 9.9 49.9 91 8.5 47.3 0 0
06:00 1022 30.18 852 25.16 9.9 49.8 90 8.3 47 0 0
06:05 1022 30.18 852 25.16 9.7 49.5 91 8.3 46.9 0 0
06:10 1023 30.21 852 25.16 9.5 49 91 8.1 46.5 0 0
06:15 1023 30.21 852 25.16 9.2 48.6 91 7.9 46.2 0 0
06:20 1023 30.21 852 25.16 8.9 48.1 93 7.8 46.1 0 0
06:25 1023 30.21 852 25.16 8.9 48.1 93 7.9 46.3 0 0
06:30 1023 30.21 852 25.16 9.3 48.7 92 8.1 46.6 0 0
06:35 1023 30.21 852 25.16 9.4 48.9 92 8.2 46.7 0 0
06:40 1023 30.21 852 25.16 9.2 48.6 94 8.2 46.8 0 0
06:45 1023 30.21 852 25.16 9.5 49.1 93 8.4 47.1 0 0
06:50 1023 30.21 852 25.16 10 50 91 8.6 47.4 0 0
06:55 1023 30.21 852 25.16 10.1 50.2 91 8.7 47.7 0 0
07:00 1023 30.21 852 25.16 10.3 50.6 91 8.8 47.9 0 0
07:05 1023 30.21 852 25.16 10.7 51.2 88 8.9 47.9 0 0
07:10 1023 30.21 852 25.16 11 51.7 87 8.9 48 0 0
07:15 1023 30.21 852 25.16 11.3 52.4 88 9.4 48.9 0 0
07:20 1023 30.21 852 25.16 11.6 52.8 88 9.6 49.3 0 0
07:25 1023 30.21 852 25.16 11.9 53.3 88 10 50 0 0
07:30 1023 30.21 852 25.16 12.4 54.2 87 10.2 50.4 0 0
07:35 1023 30.21 852 25.16 12.9 55.3 84 10.2 50.4 0 0
07:40 1023 30.21 852 25.16 13.5 56.2 82 10.5 51 0 0
07:45 1023 30.21 852 25.16 14 57.2 82 11 51.7 0 0
07:50 1023 30.21 852 25.16 14.6 58.4 78 10.9 51.6 0 0
07:55 1023 30.21 852 25.16 14.9 58.8 78 11.2 52.2 0 0
08:00 1023 30.21 852 25.16 15.3 59.5 77 11.3 52.3 0 0
08:05 1023 30.21 852 25.16 15.8 60.4 74 11.2 52.1 0 0
08:10 1023 30.21 852 25.16 15.9 60.7 73 11.2 52.2 0 0
08:15 1023 30.21 852 25.16 15.8 60.4 70 10.4 50.8 0 0
08:20 1023 30.21 852 25.16 15.8 60.5 68 10 50 0 0
08:25 1023 30.21 852 25.16 16.3 61.3 65 9.8 49.6 0 0
08:30 1023 30.21 852 25.16 16.4 61.6 65 10 49.9 0 0
08:35 1023 30.21 852 25.16 16.7 62.1 62 9.5 49.1 0 0
08:40 1023 30.21 852 25.16 17.4 63.3 61 10 49.9 0 0
08:45 1023 30.21 852 25.16 17.6 63.8 60 9.9 49.8 0 0
08:50 1023 30.21 852 25.16 17.7 63.8 60 10 50 0 0
08:55 1023 30.21 852 25.16 17.9 64.2 60 10.1 50.2 0 0
09:00 1023 30.21 852 25.16 18 64.3 58 9.7 49.5 0 0
09:05 1023 30.21 852 25.16 18.7 65.6 57 10.1 50.1 0 0
09:10 1023 30.21 852 25.16 19.1 66.4 58 10.7 51.2 0 0
09:15 1023 30.21 852 25.16 19.5 67 55 10.2 50.4 0 0
09:20 1023 30.21 852 25.16 19.9 67.9 52 10 50 0 0
09:25 1023 30.21 852 25.16 20.2 68.4 54 10.7 51.2 0 0
09:30 1023 30.21 852 25.16 20.3 68.5 56 11.4 52.6 0 0
09:35 1023 30.21 852 25.16 20.5 68.8 54 10.9 51.7 0 0
09:40 1023 30.21 852 25.16 20.1 68.2 54 10.6 51.1 0 0
09:45 1023 30.21 852 25.16 19.9 67.8 56 11 51.9 0 0
09:50 1023 30.21 852 25.16 19.8 67.7 58 11.4 52.5 0 0
09:55 1023 30.21 852 25.16 19.8 67.6 55 10.6 51.1 0 0
10:00 1023 30.21 852 25.16 20.1 68.2 56 11.1 52 0 0
10:05 1023 30.21 852 25.16 20.3 68.5 59 12.2 53.9 0 0
10:10 1023 30.21 852 25.16 20.4 68.7 53 10.8 51.4 0 0
10:15 1023 30.21 852 25.16 20.6 69 57 11.8 53.2 0 0
10:20 1023 30.21 852 25.16 20.7 69.2 54 11.2 52.2 0 0
10:25 1023 30.21 852 25.16 20.8 69.5 52 10.6 51.1 0 0
10:30 1022 30.18 852 25.16 20.9 69.7 54 11.4 52.6 0 0
10:35 1022 30.18 852 25.16 21.2 70.2 56 12.3 54.2 0 0
10:40 1022 30.18 852 25.16 21.2 70.2 52 11.3 52.3 0 0
10:45 1022 30.18 852 25.16 21.4 70.4 55 12.2 54 0 0
10:50 1022 30.18 852 25.16 21.4 70.6 56 12.3 54.1 0 0
10:55 1022 30.18 852 25.16 21.4 70.5 53 11.4 52.6 0 0
11:00 1022 30.18 852 25.16 21.4 70.6 56 12.5 54.4 0 0
11:05 1022 30.18 852 25.16 21.5 70.8 52 11.4 52.5 0 0
11:10 1022 30.18 852 25.16 21.8 71.2 56 12.8 55 0 0
11:15 1022 30.18 851 25.13 21.9 71.5 57 13.2 55.8 0 0
11:20 1022 30.18 851 25.13 22.1 71.9 49 11.1 52 0 0
11:25 1022 30.18 851 25.13 22.2 72 52 11.9 53.5 0 0
11:30 1022 30.18 851 25.13 22.5 72.4 50 11.7 53.1 0 0
11:35 1022 30.18 851 25.13 22.3 72.1 49 11.2 52.2 0 0
11:40 1022 30.18 851 25.13 22.7 72.9 51 12.2 53.9 0 0
11:45 1022 30.18 851 25.13 22.9 73.2 53 13.1 55.6 0 0
11:50 1022 30.18 851 25.13 23.1 73.6 47 11.2 52.2 0 0
11:55 1022 30.18 851 25.13 23 73.4 49 11.8 53.2 0 0
12:00 1022 30.18 851 25.13 23.2 73.7 47 11.5 52.8 0 0
12:05 1022 30.18 851 25.13 23.3 73.9 45 10.9 51.6 0 0
12:10 1022 30.18 851 25.13 23.7 74.7 45 11.4 52.4 0 0
12:15 1022 30.18 851 25.13 23.5 74.4 46 11.4 52.5 0 0
12:20 1021 30.15 851 25.13 23.8 74.8 45 11.2 52.2 0 0
12:25 1021 30.15 851 25.13 23.8 74.8 49 12.7 54.9 0 0
12:30 1021 30.15 851 25.13 24 75.1 52 13.6 56.4 0 0
12:35 1021 30.15 850 25.1 23.9 75 48 12.5 54.5 0 0
12:40 1021 30.15 850 25.1 24.1 75.4 43 11.1 52 0 0
12:45 1021 30.15 850 25.1 24.4 75.8 48 12.7 54.9 0 0
12:50 1021 30.15 850 25.1 24.6 76.3 48 13.1 55.6 0 0
12:55 1021 30.15 850 25.1 24.8 76.6 40 10.6 51 0 0
13:00 1021 30.15 850 25.1 25.3 77.5 41 11.1 52 0 0
13:05 1021 30.15 850 25.1 25 77 41 11.1 52 0 0
13:10 1021 30.15 850 25.1 24.4 76 41 10.7 51.3 0 0
13:15 1021 30.15 850 25.1 24.5 76.2 41 10.6 51 0 0
13:20 1021 30.15 850 25.1 24.3 75.8 47 12.5 54.4 0 0
13:25 1021 30.15 850 25.1 23.8 74.8 52 13.6 56.4 0 0
13:30 1021 30.15 850 25.1 23.4 74.1 53 13.4 56.2 0 0
13:35 1021 30.15 850 25.1 23.1 73.6 53 13.1 55.7 0 0
13:40 1021 30.15 851 25.13 22.4 72.4 41 8.7 47.6 0 0
13:45 1021 30.15 850 25.1 22.1 71.8 31 4.4 39.9 0 0
13:50 1021 30.15 850 25.1 23.2 73.7 39 8.6 47.5 0 0
13:55 1021 30.15 850 25.1 24.1 75.4 32 6.5 43.6 0 0
14:00 1021 30.15 850 25.1 25.3 77.5 29 6.2 43.1 0 0
14:05 1021 30.15 850 25.1 24.9 76.8 35 8.7 47.7 0 0
14:10 1021 30.15 850 25.1 25.6 78.1 31 7.6 45.6 0 0
14:15 1020 30.12 850 25.1 25.5 78 28 6.1 43 0 0
14:20 1020 30.12 849 25.07 25.4 77.7 27 5.4 41.7 0 0
14:25 1020 30.12 849 25.07 25.4 77.6 27 5.4 41.7 0 0
14:30 1020 30.12 849 25.07 25.9 78.7 30 7.4 45.4 0 0
14:35 1020 30.12 849 25.07 25.8 78.4 30 7 44.6 0 0
14:40 1020 30.12 850 25.1 24.9 76.9 33 7.9 46.3 0 0
14:45 1020 30.12 850 25.1 24.4 76 37 9.2 48.5 0 0
14:50 1020 30.12 850 25.1 24 75.1 44 11.1 52.1 0 0
14:55 1021 30.15 850 25.1 23.2 73.8 48 11.8 53.3 0 0
15:00 1021 30.15 850 25.1 22.9 73.2 49 11.6 52.9 0 0
15:05 1021 30.15 850 25.1 22.6 72.7 50 11.8 53.2 0 0
15:10 1021 30.15 850 25.1 22.1 71.7 52 11.9 53.5 0 0
15:15 1022 30.18 851 25.13 20.3 68.5 60 12.3 54.2 0 0
15:20 1022 30.18 851 25.13 19.7 67.4 60 11.9 53.4 0 0
15:25 1022 30.18 851 25.13 19.1 66.4 63 12 53.5 0 0
15:30 1022 30.18 851 25.13 19.1 66.4 62 11.8 53.2 0 0
15:35 1022 30.18 851 25.13 18.5 65.2 64 11.6 52.8 0 0
15:40 1022 30.18 851 25.13 17.9 64.3 65 11.4 52.5 0 0
15:45 1022 30.18 851 25.13 18 64.5 60 10.2 50.4 0 0
15:50 1023 30.21 852 25.16 17.9 64.3 64 11 51.8 0 0
15:55 1023 30.21 852 25.16 17.7 63.9 63 10.6 51.1 0 0
16:00 1023 30.21 852 25.16 17.6 63.6 61 9.9 49.9 0 0
16:05 1022 30.18 851 25.13 18 64.4 61 10.4 50.7 0 0
16:10 1022 30.18 851 25.13 18.8 65.9 59 10.8 51.4 0 0
16:15 1022 30.18 851 25.13 19.7 67.4 56 10.8 51.4 0 0
16:20 1022 30.18 851 25.13 19.5 67.1 62 12 53.7 0 0
16:25 1022 30.18 852 25.16 18.9 66 64 12 53.6 0 0
16:30 1022 30.18 851 25.13 18.9 66.1 63 11.8 53.3 0 0
16:35 1022 30.18 851 25.13 19.4 66.9 61 11.7 53 0 0
16:40 1022 30.18 852 25.16 18.9 66.1 60 11.1 52 0 0
16:45 1022 30.18 852 25.16 19 66.1 57 10.4 50.7 0 0
16:50 1022 30.18 851 25.13 19.8 67.6 56 10.9 51.7 0 0
16:55 1022 30.18 851 25.13 19.9 67.8 57 11.2 52.2 0 0
17:00 1022 30.18 851 25.13 19.8 67.6 60 11.8 53.3 0 0
17:05 1022 30.18 851 25.13 19.5 67.1 58 11.1 52 0 0
17:10 1022 30.18 851 25.13 19.3 66.7 57 10.6 51.1 0 0
17:15 1022 30.18 851 25.13 19.1 66.3 60 11.2 52.1 0 0
17:20 1022 30.18 851 25.13 19 66.3 61 11.5 52.7 0 0
17:25 1022 30.18 851 25.13 19 66.2 59 11 51.8 0 0
17:30 1022 30.18 851 25.13 19.1 66.4 60 11.4 52.4 0 0
17:35 1022 30.18 851 25.13 19.2 66.5 63 11.9 53.5 0 0
17:40 1022 30.18 851 25.13 19.3 66.8 59 11.2 52.1 0 0
17:45 1022 30.18 851 25.13 20.1 68.2 54 10.6 51 0 0
17:50 1022 30.18 851 25.13 21 69.8 53 11.1 51.9 0 0
17:55 1022 30.18 851 25.13 21.5 70.8 50 10.8 51.5 0 0
18:00 1022 30.18 851 25.13 21.7 71.1 46 9.7 49.5 0 0
18:05 1021 30.15 851 25.13 21.4 70.5 50 10.7 51.3 0 0
18:10 1021 30.15 851 25.13 20.9 69.7 53 11.3 52.3 0 0
18:15 1021 30.15 851 25.13 20.5 68.9 54 11.1 52 0 0
18:20 1021 30.15 851 25.13 20.1 68.1 58 11.8 53.2 0 0
18:25 1021 30.15 851 25.13 19.6 67.3 60 11.6 52.9 0 0
18:30 1021 30.15 850 25.1 19.1 66.4 62 11.8 53.2 0 0
18:35 1021 30.15 850 25.1 18.8 65.8 66 12.3 54.1 0 0
18:40 1021 30.15 850 25.1 18.5 65.2 66 12 53.6 0 0
18:45 1021 30.15 850 25.1 18.3 64.9 67 12.1 53.8 0 0
18:50 1021 30.15 850 25.1 18.1 64.6 67 12 53.7 0 0
18:55 1021 30.15 850 25.1 18 64.4 69 12.3 54.2 0 0
19:00 1021 30.15 850 25.1 17.9 64.2 70 12.5 54.5 0 0
19:05 1021 30.15 850 25.1 17.8 64.1 71 12.5 54.5 0 0
19:10 1021 30.15 850 25.1 18 64.3 71 12.8 55 0 0
19:15 1021 30.15 850 25.1 18.4 65.1 68 12.4 54.3 0 0
19:20 1021 30.15 850 25.1 19.1 66.3 64 12.1 53.9 0 0
19:25 1021 30.15 850 25.1 19.7 67.5 62 12.4 54.4 0 0
19:30 1021 30.15 850 25.1 20.2 68.4 62 12.8 55 0 0
19:35 1021 30.15 850 25.1 20.3 68.5 65 13.7 56.6 0 0
19:40 1021 30.15 850 25.1 20 68 65 13.4 56.1 0 0
19:45 1021 30.15 850 25.1 19.7 67.4 65 13 55.4 0 0
19:50 1021 30.15 850 25.1 19 66.1 67 12.8 55 0 0
19:55 1021 30.15 850 25.1 18.7 65.6 65 11.9 53.5 0 0
20:00 1021 30.15 850 25.1 18.8 65.9 63 11.8 53.2 0 0
20:05 1021 30.15 850 25.1 18.9 66 63 11.7 53.1 0 0
20:10 1021 30.15 850 25.1 18.7 65.7 63 11.6 52.9 0 0
20:15 1021 30.15 850 25.1 18.7 65.6 61 11 51.9 0 0
20:20 1021 30.15 850 25.1 18.7 65.7 62 11.3 52.3 0 0
20:25 1021 30.15 850 25.1 18.4 65.1 63 11.4 52.5 0 0
20:30 1021 30.15 850 25.1 17.9 64.2 65 11.4 52.5 0 0
20:35 1021 30.15 850 25.1 17.6 63.7 65 11.1 51.9 0 0
20:40 1021 30.15 850 25.1 17.6 63.6 64 10.8 51.4 0 0
20:45 1021 30.15 850 25.1 17.6 63.7 66 11.3 52.3 0 0
20:50 1021 30.15 850 25.1 17.4 63.3 65 10.9 51.7 0 0
20:55 1021 30.15 850 25.1 17.4 63.2 66 10.9 51.7 0 0
21:00 1021 30.15 850 25.1 17.5 63.4 62 10.2 50.3 0 0
21:05 1021 30.15 850 25.1 17.5 63.4 63 10.5 50.9 0 0
21:10 1021 30.15 850 25.1 17.2 62.9 64 10.3 50.6 0 0
21:15 1021 30.15 850 25.1 17 62.7 65 10.4 50.7 0 0
21:20 1021 30.15 850 25.1 16.4 61.4 68 10.4 50.7 0 0
21:25 1021 30.15 850 25.1 16.3 61.3 70 10.9 51.6 0 0
21:30 1021 30.15 850 25.1 15.2 59.3 82 12.2 53.9 0 0
21:35 1021 30.15 851 25.13 14.2 57.6 85 11.7 53.1 0 0
21:40 1022 30.18 851 25.13 14.5 58.1 85 12 53.5 0 0
21:45 1022 30.18 851 25.13 14.8 58.6 83 11.9 53.4 0 0
21:50 1022 30.18 851 25.13 15.5 60 79 12 53.6 0 0
21:55 1022 30.18 851 25.13 15.9 60.6 78 12.2 53.9 0 0
22:00 1022 30.18 851 25.13 16.1 60.9 76 11.9 53.4 0 0
22:05 1022 30.18 851 25.13 16.2 61.1 76 12.1 53.7 0 0
22:10 1022 30.18 851 25.13 16.1 61 75 11.7 53.1 0 0
22:15 1022 30.18 851 25.13 16.3 61.4 74 11.8 53.3 0 0
22:20 1022 30.18 851 25.13 16.4 61.6 74 11.9 53.4 0 0
22:25 1022 30.18 851 25.13 16.4 61.5 76 12.1 53.8 0 0
22:30 1022 30.18 852 25.16 15.9 60.7 79 12.3 54.2 0 0
22:35 1022 30.18 852 25.16 15.2 59.4 84 12.5 54.5 0 0
22:40 1023 30.21 852 25.16 14.6 58.4 86 12.4 54.3 0 0
22:45 1022 30.18 852 25.16 14.7 58.4 84 12 53.6 0 0
22:50 1022 30.18 852 25.16 15 58.9 84 12.3 54.2 0 0
22:55 1022 30.18 852 25.16 14.9 58.7 85 12.3 54.1 0 0
23:00 1022 30.18 851 25.13 14.7 58.4 85 12.3 54.1 0 0
23:05 1022 30.18 852 25.16 14.5 58.2 86 12.2 53.9 0 0
23:10 1022 30.18 852 25.16 14.4 58 86 12.1 53.8 0 0
23:15 1023 30.21 852 25.16 14.4 57.9 86 12.1 53.8 0 0
23:20 1023 30.21 852 25.16 14.5 58 86 12.1 53.9 0 0
23:25 1023 30.21 852 25.16 14.4 58 86 12.1 53.7 0 0
23:30 1023 30.21 852 25.16 14.6 58.2 85 12.1 53.7 0 0
23:35 1023 30.21 852 25.16 14.6 58.2 84 11.8 53.3 0 0
23:40 1023 30.21 852 25.16 14.8 58.6 83 11.9 53.4 0 0
23:45 1023 30.21 852 25.16 14.8 58.7 82 11.8 53.3 0 0
23:50 1023 30.21 852 25.16 14.8 58.6 82 11.8 53.3 0 0
23:55 1023 30.21 852 25.16 14.9 58.7 79 11.2 52.2 0 0
24:00 1023 30.21 852 25.16 15.4 59.7 74 10.9 51.6 0 0